createdAt,value
2018-08-20T00:01:30.388Z,12.90
2018-08-20T00:06:48.599Z,13.80
2018-08-20T00:11:52.349Z,13.73
2018-08-20T00:17:02.668Z,16.20
2018-08-20T00:22:06.426Z,17.00
2018-08-20T00:27:10.207Z,15.83
2018-08-20T00:32:14.785Z,16.57
2018-08-20T00:37:18.804Z,13.40
2018-08-20T00:42:22.900Z,16.67
2018-08-20T00:47:27.509Z,16.83
2018-08-20T00:52:31.271Z,13.30
2018-08-20T00:57:35.527Z,15.00
2018-08-20T01:02:39.375Z,12.73
2018-08-20T01:07:44.191Z,13.97
2018-08-20T01:12:48.219Z,11.23
2018-08-20T01:18:00.845Z,14.00
2018-08-20T01:23:05.073Z,9.23
2018-08-20T01:28:09.208Z,14.83
2018-08-20T01:33:15.582Z,11.87
2018-08-20T01:38:19.680Z,13.57
2018-08-20T01:43:23.741Z,14.50
2018-08-20T01:48:28.075Z,10.47
2018-08-20T01:53:32.517Z,9.47
2018-08-20T01:58:36.306Z,9.43
2018-08-20T02:03:40.146Z,13.23
2018-08-20T02:08:43.831Z,11.87
2018-08-20T02:13:47.830Z,11.57
2018-08-20T02:18:51.672Z,11.20
2018-08-20T02:23:56.079Z,10.03
2018-08-20T02:29:00.011Z,11.13
2018-08-20T02:34:03.696Z,11.37
2018-08-20T02:39:20.652Z,14.17
2018-08-20T02:44:24.748Z,11.83
2018-08-20T02:49:46.117Z,10.43
2018-08-20T02:54:50.482Z,10.03
2018-08-20T02:59:54.421Z,10.77
2018-08-20T03:04:58.466Z,12.07
2018-08-20T03:10:02.587Z,14.00
2018-08-20T03:15:07.584Z,13.33
2018-08-20T03:20:11.992Z,13.93
2018-08-20T03:25:15.867Z,12.40
2018-08-20T03:30:19.615Z,14.53
2018-08-20T03:35:23.463Z,12.73
2018-08-20T03:40:27.245Z,12.90
2018-08-20T03:45:30.970Z,13.97
2018-08-20T03:50:34.620Z,12.13
2018-08-20T03:55:38.642Z,13.17
2018-08-20T04:00:42.785Z,13.97
2018-08-20T04:05:46.624Z,11.73
2018-08-20T04:10:50.830Z,13.23
2018-08-20T04:15:54.549Z,13.97
2018-08-20T04:20:58.298Z,10.67
2018-08-20T04:26:02.000Z,13.27
2018-08-20T04:31:05.877Z,13.37
2018-08-20T04:36:09.706Z,13.23
2018-08-20T04:41:13.496Z,14.20
2018-08-20T04:46:17.667Z,18.73
2018-08-20T04:51:21.872Z,18.57
2018-08-20T04:56:26.576Z,17.20
2018-08-20T05:01:30.748Z,18.80
2018-08-20T05:06:34.736Z,16.83
2018-08-20T05:11:38.693Z,18.00
2018-08-20T05:16:42.590Z,19.20
2018-08-20T05:21:46.569Z,18.23
2018-08-20T05:26:50.531Z,20.80
2018-08-20T05:31:54.372Z,19.87
2018-08-20T05:36:58.063Z,18.53
2018-08-20T05:42:01.840Z,19.63
2018-08-20T05:47:05.899Z,19.53
2018-08-20T05:52:10.277Z,21.67
2018-08-20T05:57:14.676Z,20.40
2018-08-20T06:02:18.439Z,24.73
2018-08-20T06:07:22.735Z,25.57
2018-08-20T06:12:26.727Z,24.37
2018-08-20T06:23:06.744Z,25.27
2018-08-20T06:28:10.507Z,27.97
2018-08-20T06:33:15.230Z,26.03
2018-08-20T06:38:37.491Z,26.87
2018-08-20T06:43:41.441Z,26.53
2018-08-20T06:48:52.757Z,28.30
2018-08-20T06:53:56.759Z,27.37
2018-08-20T07:04:32.113Z,28.37
2018-08-20T07:20:32.830Z,28.77
2018-08-20T07:25:36.646Z,27.00
2018-08-20T07:30:40.854Z,27.70
2018-08-20T07:35:51.932Z,27.73
2018-08-20T07:40:56.003Z,28.50
2018-08-20T07:46:00.151Z,26.10
2018-08-20T07:51:04.776Z,25.33
2018-08-20T07:56:08.629Z,31.93
2018-08-20T08:01:12.747Z,30.70
2018-08-20T08:06:17.134Z,26.93
2018-08-20T08:11:20.972Z,32.80
2018-08-20T08:16:25.263Z,33.03
2018-08-20T08:21:29.124Z,33.43
2018-08-20T08:26:33.497Z,34.57
2018-08-20T08:31:37.773Z,34.40
2018-08-20T08:36:41.482Z,35.63
2018-08-20T08:41:45.553Z,42.37
2018-08-20T08:46:49.895Z,40.70
2018-08-20T08:51:53.947Z,44.63
2018-08-20T08:57:08.074Z,53.03
2018-08-20T09:02:11.987Z,55.73
2018-08-20T09:07:15.713Z,56.07
2018-08-20T09:12:19.675Z,58.47
2018-08-20T09:17:23.923Z,55.47
2018-08-20T09:22:28.022Z,61.37
2018-08-20T09:27:37.496Z,63.43
2018-08-20T09:38:16.277Z,58.83
2018-08-20T09:43:19.972Z,62.53
2018-08-20T09:48:23.732Z,61.00
2018-08-20T09:53:27.956Z,67.07
2018-08-20T09:58:31.675Z,64.07
2018-08-20T10:03:35.404Z,63.57
2018-08-20T10:08:39.292Z,66.53
2018-08-20T10:13:43.284Z,65.30
2018-08-20T10:18:47.563Z,61.27
2018-08-20T10:23:51.679Z,57.27
2018-08-20T10:29:06.133Z,59.97
2018-08-20T10:34:09.876Z,60.00
2018-08-20T10:50:14.060Z,50.23
2018-08-20T10:55:17.808Z,48.53
2018-08-20T11:00:21.860Z,46.83
2018-08-20T11:05:26.018Z,41.47
2018-08-20T11:10:30.096Z,41.20
2018-08-20T11:15:34.218Z,38.20
2018-08-20T11:20:38.215Z,37.87
2018-08-20T11:25:42.148Z,38.33
2018-08-20T11:30:45.852Z,38.93
2018-08-20T11:35:49.939Z,37.40
2018-08-20T11:46:24.159Z,33.30
2018-08-20T11:51:27.989Z,34.40
2018-08-20T11:56:31.978Z,29.97
2018-08-20T12:01:36.145Z,32.93
2018-08-20T12:06:40.031Z,33.20
2018-08-20T12:11:43.890Z,36.87
2018-08-20T12:16:48.040Z,40.17
2018-08-20T12:21:51.821Z,39.67
2018-08-20T12:32:24.469Z,40.43
2018-08-20T12:37:38.007Z,42.27
2018-08-20T12:42:41.946Z,43.20
2018-08-20T12:53:33.082Z,38.23
2018-08-20T12:58:37.099Z,37.23
2018-08-20T13:03:41.083Z,37.60
2018-08-20T13:14:35.333Z,25.13
2018-08-20T13:19:39.111Z,22.17
2018-08-20T13:24:43.013Z,18.80
2018-08-20T13:29:52.313Z,17.93
2018-08-20T13:40:24.590Z,18.60
2018-08-20T14:02:05.588Z,17.97
2018-08-20T14:07:09.508Z,19.43
2018-08-20T14:12:13.348Z,19.93
2018-08-20T14:23:05.008Z,20.17
2018-08-20T14:28:08.877Z,20.47
2018-08-20T14:33:12.592Z,15.83
2018-08-20T14:38:16.641Z,10.07
2018-08-20T14:43:20.491Z,9.43
2018-08-20T14:48:24.492Z,8.03
2018-08-20T14:53:28.417Z,10.60
2018-08-20T14:58:32.400Z,10.73
2018-08-20T15:03:36.339Z,12.57
2018-08-20T15:08:40.762Z,10.70
2018-08-20T15:13:44.784Z,9.60
2018-08-20T15:29:45.218Z,7.63
2018-08-20T15:34:49.358Z,6.20
2018-08-20T15:39:53.208Z,6.00
2018-08-20T15:44:57.278Z,4.50
2018-08-20T15:50:01.000Z,9.40
2018-08-20T15:55:05.275Z,6.00
2018-08-20T16:11:13.293Z,6.87
2018-08-20T16:16:17.258Z,5.83
2018-08-20T16:21:21.094Z,3.70
2018-08-20T16:26:25.210Z,3.20
2018-08-20T16:31:29.127Z,3.13
2018-08-20T16:36:33.837Z,2.27
2018-08-20T16:41:37.980Z,3.00
2018-08-20T16:52:10.726Z,3.10
2018-08-20T17:13:45.660Z,1.77
2018-08-20T17:40:41.965Z,2.37
2018-08-20T17:45:45.884Z,1.80
2018-08-20T17:50:50.096Z,4.03
2018-08-20T17:55:54.393Z,3.67
2018-08-20T18:00:58.311Z,1.93
2018-08-20T18:06:05.406Z,3.70
2018-08-20T18:11:09.326Z,5.00
2018-08-20T18:16:14.497Z,2.00
2018-08-20T18:21:18.678Z,2.33
2018-08-20T18:26:26.496Z,2.07
2018-08-20T18:31:30.708Z,5.77
2018-08-20T18:36:35.071Z,1.83
2018-08-20T18:42:16.894Z,1.40
2018-08-20T18:47:20.837Z,2.57
2018-08-20T18:52:26.346Z,3.97
2018-08-20T18:57:33.709Z,2.50
2018-08-20T19:02:55.617Z,2.50
2018-08-20T19:07:59.691Z,3.57
2018-08-20T19:13:03.466Z,2.30
2018-08-20T19:18:15.523Z,2.30
2018-08-20T19:23:19.432Z,2.43
2018-08-20T19:45:07.113Z,2.73
2018-08-20T19:50:12.141Z,4.53
2018-08-20T19:55:15.967Z,2.20
2018-08-20T20:00:20.130Z,1.43
2018-08-20T20:05:24.493Z,3.00
2018-08-20T20:10:28.337Z,2.17
2018-08-20T20:15:33.226Z,2.63
2018-08-20T20:20:37.049Z,2.67
2018-08-20T20:25:41.237Z,2.00
2018-08-20T20:30:45.350Z,4.47
2018-08-20T20:35:49.144Z,2.23
2018-08-20T20:40:53.069Z,3.73
2018-08-20T20:45:57.078Z,2.30
2018-08-20T20:51:01.373Z,4.20
2018-08-20T20:56:05.488Z,1.77
2018-08-20T21:01:10.875Z,2.33
2018-08-20T21:06:14.795Z,2.50
2018-08-20T21:11:20.060Z,1.83
2018-08-20T21:16:25.135Z,2.60
2018-08-20T21:21:30.191Z,1.33
2018-08-20T21:26:34.019Z,3.90
2018-08-20T21:31:41.667Z,2.23
2018-08-20T21:36:45.391Z,2.00
2018-08-20T21:42:05.602Z,2.53
2018-08-20T21:47:20.840Z,1.40
2018-08-20T21:52:25.183Z,2.27
2018-08-20T21:57:29.054Z,2.33
2018-08-20T22:02:51.236Z,3.03
2018-08-20T22:08:02.030Z,2.63
2018-08-20T22:13:05.749Z,2.17
2018-08-20T22:18:32.909Z,4.00
2018-08-20T22:23:41.906Z,3.43
2018-08-20T22:28:45.759Z,2.70
2018-08-20T22:33:56.729Z,2.77
2018-08-20T22:39:16.477Z,2.00
2018-08-20T22:44:20.219Z,4.23
2018-08-20T22:54:52.418Z,3.10
2018-08-20T22:59:56.293Z,6.60
2018-08-20T23:05:02.001Z,4.30
2018-08-20T23:10:06.451Z,4.70
2018-08-20T23:15:11.987Z,2.10
2018-08-20T23:20:26.219Z,1.60
2018-08-20T23:25:30.734Z,2.00
2018-08-20T23:30:34.693Z,4.27
2018-08-20T23:35:38.795Z,2.03
2018-08-20T23:40:42.836Z,2.70
2018-08-20T23:45:46.587Z,1.97
2018-08-20T23:50:57.114Z,3.03
2018-08-20T23:56:00.995Z,1.73
